Witamy     NOTAM     FEEDBACK     Informacje     Wydarzenia     O nas      FIR Warszawa      Kontrolerzy     Piloci     Lotniska     Pliki     Linki     Forum    

Aktualna pogoda

METAR

EPBY 210400Z 28010KT 9999 BKN009 BKN012 08/06 Q1030
EPGD 210400Z 27009KT 9999 BKN010 05/04 Q1028
EPKK 210400Z 22003KT 6000 NSC M02/M04 Q1034
EPKT 210400Z VRB01KT 4300 BR BKN044 M01/M04 Q1033
EPLB 210400Z 26008KT 9999 BKN035 05/M01 Q1030
EPLL 210400Z 23007KT 9999 OVC033 05/M00 Q1031
EPMO 210400Z 25007KT 9999 SCT022 BKN039 07/02 Q1030
EPPO 210400Z 26008KT 9999 OVC022 08/04 Q1031
EPRZ 210400Z 25006KT 8000 NSC M01/M04 Q1033
EPSC 210400Z 24003KT 5000 BR FEW009 SCT011 BKN020 08/06 Q1031
EPSY 202300Z 26010KT 220V300 9999 OVC026 08/01 Q1028
EPWA 210400Z 28007KT 9999 BKN036 07/01 Q1030 NOSIG
EPWR 210400Z 25004KT 9999 OVC037 06/M01 Q1033
EPZG 210400Z 23007KT 9999 OVC027 08/04 Q1033

METAR - MIL

EPCE 210330Z 27011KT 8000 BKN004 05/04 Q1028 RMK 051 094 7/7=
EPDA 210330Z 27009KT 220V300 0650 FG VV002 05/05 Q1030 RMK 049 100 ///=
EPDE 210330Z 24004KT 9999 OVC030 05/M01 Q1030 RMK 053 062 8/8=
EPKS 210330Z 25009KT 9999 OVC025 08/04 Q1031 RMK 083 073 8/8=
EPMM 210330Z 27006KT 9999 OVC021 06/00 Q1029 RMK 057 067 8/8=
EPOK 210330Z 27008KT 9999 FEW009 04/03 Q1028 RMK 044 092 1/1=
EPPR 210330Z 25004KT 9999 BKN026 05/02 Q1029 RMK 053 081 7/7=
EPPW 210330Z 25010KT 9999 OVC028 08/03 Q1031 RMK 075 072 8/8=
EPRA 210330Z 27012KT 9999 BKN033 06/M03 Q1031 RMK 060 054 7/7=
EPSN 210330Z 30008KT 5000 BR OVC005 07/07 Q1030 RMK 068 100 8/8=

 

 
© 2001 Polish VACC
[logowanie]